Time;durP1;ratioP1;P1;durP2;ratioP2;P2;SDS_P1;SDS_P2;PMS_P1;PMS_P2;Temp;Humidity;BMP_temperature;BMP_pressure;BME280_temperature;BME280_humidity;BME280_pressure;Samples;Min_cycle;Max_cycle;Signal;HPM_P1;HPM_P2
2022/07/11 00:01:07;;;;;;;4.70;2.70;;;;;;;;;;5024518;28;20049;-73
2022/07/11 00:03:33;;;;;;;3.42;2.10;;;;;;;;;;5026046;28;20508;-73
2022/07/11 00:05:59;;;;;;;4.78;2.20;;;;;;;;;;5030839;28;20496;-72
2022/07/11 00:08:26;;;;;;;3.17;2.50;;;;;;;;;;5021338;28;20045;-73
2022/07/11 00:10:53;;;;;;;3.60;2.15;;;;;;;;;;5023064;28;20413;-73
2022/07/11 00:13:19;;;;;;;3.83;2.10;;;;;;;;;;5023906;28;20045;-73
2022/07/11 00:15:45;;;;;;;3.30;2.40;;;;;;;;;;5030759;28;20042;-73
2022/07/11 00:18:11;;;;;;;3.33;2.20;;;;;;;;;;5023064;28;20045;-73
2022/07/11 00:20:37;;;;;;;4.43;2.47;;;;;;;;;;5026748;28;20033;-73
2022/07/11 00:23:03;;;;;;;2.55;2.20;;;;;;;;;;5026512;28;20037;-73
2022/07/11 00:25:29;;;;;;;3.60;2.25;;;;;;;;;;5025839;28;20049;-73
2022/07/11 00:27:55;;;;;;;3.88;2.22;;;;;;;;;;5018599;28;20073;-72
2022/07/11 00:30:21;;;;;;;3.70;2.03;;;;;;;;;;5028442;28;20085;-73
2022/07/11 00:32:48;;;;;;;3.88;2.17;;;;;;;;;;5022035;28;20069;-73
2022/07/11 00:35:14;;;;;;;5.28;2.63;;;;;;;;;;5025722;28;20056;-73
2022/07/11 00:37:40;;;;;;;3.45;2.67;;;;;;;;;;5029848;28;20038;-73
2022/07/11 00:40:06;;;;;;;4.45;2.60;;;;;;;;;;5025834;28;20094;-73
2022/07/11 00:42:32;;;;;;;5.07;2.40;;;;;;;;;;5020489;28;20168;-73
2022/07/11 00:44:58;;;;;;;4.30;2.33;;;;;;;;;;5033016;28;20041;-73
2022/07/11 00:47:24;;;;;;;2.80;2.17;;;;;;;;;;5027193;28;20382;-72
2022/07/11 00:49:50;;;;;;;2.05;1.85;;;;;;;;;;5020196;28;20041;-73
2022/07/11 00:52:17;;;;;;;2.22;1.98;;;;;;;;;;5027587;28;20191;-73
2022/07/11 00:54:44;;;;;;;2.22;1.73;;;;;;;;;;5027132;28;20045;-73
2022/07/11 00:57:10;;;;;;;4.30;2.22;;;;;;;;;;5025090;28;20044;-73
2022/07/11 00:59:39;;;;;;;2.55;2.10;;;;;;;;;;5022694;28;20037;-73
2022/07/11 01:02:05;;;;;;;4.93;2.33;;;;;;;;;;5017463;28;20053;-72
2022/07/11 01:04:31;;;;;;;5.68;2.58;;;;;;;;;;5019943;28;20497;-72
2022/07/11 01:06:57;;;;;;;7.07;2.72;;;;;;;;;;5033851;28;20044;-72
2022/07/11 01:09:23;;;;;;;6.43;2.47;;;;;;;;;;5029018;28;20045;-73
2022/07/11 01:11:49;;;;;;;4.93;2.33;;;;;;;;;;5025817;28;20067;-72
2022/07/11 01:14:15;;;;;;;5.35;2.58;;;;;;;;;;5022782;28;20041;-73
2022/07/11 01:16:41;;;;;;;3.42;2.40;;;;;;;;;;5025304;28;20124;-73
2022/07/11 01:19:07;;;;;;;5.32;2.50;;;;;;;;;;5023071;28;20117;-73
2022/07/11 01:21:40;;;;;;;4.80;2.40;;;;;;;;;;5023228;28;20049;-73
2022/07/11 01:24:07;;;;;;;3.75;1.95;;;;;;;;;;5020615;28;20080;-72
2022/07/11 01:26:33;;;;;;;2.90;1.90;;;;;;;;;;5051276;28;20139;-73
2022/07/11 01:29:09;;;;;;;3.78;2.42;;;;;;;;;;5024948;28;20049;-72
2022/07/11 01:31:38;;;;;;;3.42;2.30;;;;;;;;;;5027611;28;20045;-72
2022/07/11 01:34:04;;;;;;;5.57;2.40;;;;;;;;;;5024268;28;20158;-72
2022/07/11 01:36:30;;;;;;;3.88;2.45;;;;;;;;;;5031472;28;20042;-73
2022/07/11 01:38:56;;;;;;;3.97;2.40;;;;;;;;;;5030773;28;20037;-72
2022/07/11 01:41:22;;;;;;;4.25;2.60;;;;;;;;;;5029309;28;20052;-72
2022/07/11 01:43:48;;;;;;;3.53;2.13;;;;;;;;;;5020204;28;20046;-72
2022/07/11 01:46:16;;;;;;;3.35;2.05;;;;;;;;;;5030401;28;20110;-73
2022/07/11 01:48:42;;;;;;;2.92;1.90;;;;;;;;;;5027528;28;20053;-72
2022/07/11 01:51:08;;;;;;;2.15;1.80;;;;;;;;;;5032319;28;20489;-73
2022/07/11 01:53:34;;;;;;;2.75;2.10;;;;;;;;;;5028949;28;20045;-73
2022/07/11 01:56:00;;;;;;;3.08;2.28;;;;;;;;;;5022799;28;20045;-73
2022/07/11 01:58:26;;;;;;;3.42;2.03;;;;;;;;;;5028842;28;20073;-73
2022/07/11 02:00:52;;;;;;;2.95;2.20;;;;;;;;;;5029086;28;20054;-73
2022/07/11 02:03:18;;;;;;;4.90;2.20;;;;;;;;;;5029456;28;20103;-72
2022/07/11 02:05:45;;;;;;;3.33;2.00;;;;;;;;;;5028482;28;20445;-73
2022/07/11 02:08:14;;;;;;;3.53;2.00;;;;;;;;;;5032593;28;20514;-73
2022/07/11 02:10:47;;;;;;;2.50;2.30;;;;;;;;;;5029027;28;20047;-73
2022/07/11 02:13:14;;;;;;;3.13;1.90;;;;;;;;;;5024579;28;20054;-72
2022/07/11 02:15:40;;;;;;;4.38;2.30;;;;;;;;;;5022995;28;20041;-73
2022/07/11 02:18:06;;;;;;;3.58;2.20;;;;;;;;;;5023965;28;20038;-73
2022/07/11 02:20:32;;;;;;;2.75;2.20;;;;;;;;;;5036329;28;20049;-72
2022/07/11 02:22:59;;;;;;;2.83;2.40;;;;;;;;;;5029146;28;20373;-72
2022/07/11 02:25:25;;;;;;;3.20;1.88;;;;;;;;;;5027293;28;20123;-73
2022/07/11 02:27:51;;;;;;;2.55;1.85;;;;;;;;;;5026144;28;20704;-73
2022/07/11 02:30:17;;;;;;;2.30;1.60;;;;;;;;;;5024792;28;20118;-73
2022/07/11 02:32:43;;;;;;;2.15;1.88;;;;;;;;;;5024661;28;20515;-72
2022/07/11 02:35:10;;;;;;;1.77;1.67;;;;;;;;;;5028388;28;20057;-72
2022/07/11 02:37:36;;;;;;;1.92;1.50;;;;;;;;;;5035181;28;20050;-72
2022/07/11 02:40:02;;;;;;;2.35;1.60;;;;;;;;;;5031528;28;20563;-73
2022/07/11 02:42:28;;;;;;;3.47;1.60;;;;;;;;;;5026675;28;20049;-72
2022/07/11 02:44:54;;;;;;;1.73;1.58;;;;;;;;;;5025485;28;20051;-73
2022/07/11 02:47:20;;;;;;;1.58;1.48;;;;;;;;;;5025411;28;20057;-73
2022/07/11 02:49:47;;;;;;;2.17;1.70;;;;;;;;;;5025610;28;20068;-73
2022/07/11 02:52:14;;;;;;;3.03;1.60;;;;;;;;;;5023357;28;20078;-72
2022/07/11 02:54:40;;;;;;;1.50;1.40;;;;;;;;;;5024709;28;20068;-72
2022/07/11 02:57:06;;;;;;;1.73;1.40;;;;;;;;;;5028114;28;20041;-72
2022/07/11 02:59:32;;;;;;;2.67;1.50;;;;;;;;;;5030089;28;20080;-72
2022/07/11 03:01:58;;;;;;;2.00;1.40;;;;;;;;;;5027529;28;20045;-72
2022/07/11 03:04:24;;;;;;;1.40;1.30;;;;;;;;;;5022438;28;20053;-73
2022/07/11 03:06:50;;;;;;;2.35;1.38;;;;;;;;;;5033499;28;20041;-72
2022/07/11 03:09:16;;;;;;;3.42;1.50;;;;;;;;;;5023556;28;20053;-72
2022/07/11 03:11:42;;;;;;;1.42;1.30;;;;;;;;;;5057268;28;20045;-72
2022/07/11 03:14:09;;;;;;;1.48;1.38;;;;;;;;;;5021902;28;20038;-72
2022/07/11 03:16:35;;;;;;;2.40;1.55;;;;;;;;;;5027696;28;20049;-73
2022/07/11 03:19:01;;;;;;;1.98;1.40;;;;;;;;;;5032645;28;20135;-72
2022/07/11 03:21:27;;;;;;;1.85;1.48;;;;;;;;;;5032342;28;20136;-72
2022/07/11 03:23:53;;;;;;;2.47;1.58;;;;;;;;;;5032302;28;20124;-72
2022/07/11 03:26:19;;;;;;;1.42;1.33;;;;;;;;;;5029223;28;20454;-73
2022/07/11 03:28:45;;;;;;;3.13;1.55;;;;;;;;;;5024486;28;20045;-73
2022/07/11 03:31:11;;;;;;;1.75;1.45;;;;;;;;;;5018101;28;20075;-72
2022/07/11 03:33:37;;;;;;;1.58;1.48;;;;;;;;;;5025811;28;20052;-73
2022/07/11 03:36:04;;;;;;;1.55;1.30;;;;;;;;;;5038350;28;20048;-72
2022/07/11 03:38:30;;;;;;;1.45;1.30;;;;;;;;;;5026214;28;20072;-72
2022/07/11 03:40:56;;;;;;;2.55;1.50;;;;;;;;;;5026427;28;20120;-72
2022/07/11 03:43:22;;;;;;;1.42;1.30;;;;;;;;;;5051846;28;20125;-72
2022/07/11 03:45:48;;;;;;;3.67;1.30;;;;;;;;;;5027376;28;20042;-73
2022/07/11 03:48:14;;;;;;;1.50;1.35;;;;;;;;;;5027104;28;20045;-73
2022/07/11 03:50:40;;;;;;;1.25;1.25;;;;;;;;;;5030971;28;20497;-73
2022/07/11 03:53:09;;;;;;;1.40;1.38;;;;;;;;;;5022718;28;20096;-72
2022/07/11 03:55:37;;;;;;;1.48;1.38;;;;;;;;;;5028522;28;20455;-72
2022/07/11 03:58:03;;;;;;;3.15;1.73;;;;;;;;;;5026167;28;20397;-72
2022/07/11 04:00:29;;;;;;;2.45;1.30;;;;;;;;;;5021385;28;20049;-72
2022/07/11 04:02:55;;;;;;;1.45;1.35;;;;;;;;;;5019034;28;20045;-72
2022/07/11 04:05:21;;;;;;;2.50;1.48;;;;;;;;;;5027767;28;20587;-72
2022/07/11 04:07:48;;;;;;;1.77;1.48;;;;;;;;;;5016475;28;20070;-72
2022/07/11 04:10:14;;;;;;;1.10;1.10;;;;;;;;;;5024700;28;20497;-72
2022/07/11 04:12:41;;;;;;;1.73;1.50;;;;;;;;;;5047261;28;20551;-73
2022/07/11 04:15:07;;;;;;;2.10;1.48;;;;;;;;;;5020782;28;20413;-72
2022/07/11 04:17:33;;;;;;;1.50;1.40;;;;;;;;;;5029192;28;20465;-73
2022/07/11 04:19:59;;;;;;;2.45;1.25;;;;;;;;;;5030386;28;20033;-72
2022/07/11 04:22:26;;;;;;;1.67;1.30;;;;;;;;;;5023756;28;20041;-72
2022/07/11 04:24:52;;;;;;;1.20;1.20;;;;;;;;;;5027511;28;20049;-72
2022/07/11 04:27:18;;;;;;;1.40;1.30;;;;;;;;;;5020829;28;20049;-72
2022/07/11 04:29:44;;;;;;;1.30;1.20;;;;;;;;;;5029047;28;20536;-72
2022/07/11 04:32:10;;;;;;;1.10;1.05;;;;;;;;;;5027769;28;20394;-73
2022/07/11 04:34:36;;;;;;;1.98;1.10;;;;;;;;;;5018576;28;20103;-72
2022/07/11 04:37:02;;;;;;;1.00;1.00;;;;;;;;;;5018773;28;20042;-72
2022/07/11 04:39:28;;;;;;;1.13;1.10;;;;;;;;;;5025854;28;20412;-72
2022/07/11 04:41:54;;;;;;;1.65;1.10;;;;;;;;;;5018845;28;20623;-72
2022/07/11 04:44:20;;;;;;;1.08;1.00;;;;;;;;;;5029102;28;20087;-73
2022/07/11 04:46:46;;;;;;;0.90;0.90;;;;;;;;;;5025244;28;20068;-73
2022/07/11 04:49:12;;;;;;;1.60;1.35;;;;;;;;;;5019049;28;20068;-73
2022/07/11 04:51:38;;;;;;;1.42;1.17;;;;;;;;;;5017258;28;20052;-73
2022/07/11 04:54:04;;;;;;;1.85;1.40;;;;;;;;;;5025343;28;20123;-73
2022/07/11 04:56:30;;;;;;;1.60;1.50;;;;;;;;;;5028824;28;20049;-73
2022/07/11 04:58:56;;;;;;;2.50;1.40;;;;;;;;;;5025774;28;20040;-73
2022/07/11 05:01:22;;;;;;;1.35;1.20;;;;;;;;;;5022450;28;20132;-73
2022/07/11 05:03:48;;;;;;;2.38;1.35;;;;;;;;;;5027351;28;20081;-73
2022/07/11 05:06:14;;;;;;;1.30;1.20;;;;;;;;;;5016495;28;20061;-73
2022/07/11 05:08:40;;;;;;;1.30;1.20;;;;;;;;;;5033628;28;20049;-73
2022/07/11 05:11:06;;;;;;;3.30;3.00;;;;;;;;;;5023290;28;20045;-73
2022/07/11 05:13:33;;;;;;;1.38;1.27;;;;;;;;;;5029592;28;20485;-74
2022/07/11 05:15:59;;;;;;;1.40;1.30;;;;;;;;;;5026106;28;20120;-73
2022/07/11 05:18:25;;;;;;;2.15;1.30;;;;;;;;;;5024550;28;20065;-73
2022/07/11 05:20:51;;;;;;;1.50;1.40;;;;;;;;;;5028512;28;20037;-73
2022/07/11 05:23:17;;;;;;;1.45;1.35;;;;;;;;;;5037304;28;20049;-73
2022/07/11 05:25:43;;;;;;;1.52;1.40;;;;;;;;;;5050860;28;20076;-73
2022/07/11 05:28:09;;;;;;;1.50;1.40;;;;;;;;;;5020798;28;20096;-73
2022/07/11 05:30:35;;;;;;;2.00;1.38;;;;;;;;;;5029497;28;20044;-73
2022/07/11 05:33:01;;;;;;;1.30;1.20;;;;;;;;;;5031078;28;20136;-73
2022/07/11 05:35:27;;;;;;;1.50;1.20;;;;;;;;;;5037343;28;20041;-73
2022/07/11 05:37:53;;;;;;;1.55;1.45;;;;;;;;;;5026310;28;20045;-72
2022/07/11 05:40:20;;;;;;;1.38;1.27;;;;;;;;;;5033347;28;20077;-73
2022/07/11 05:42:46;;;;;;;1.55;1.42;;;;;;;;;;5024620;28;20463;-73
2022/07/11 05:45:12;;;;;;;1.30;1.30;;;;;;;;;;5028783;28;20037;-73
2022/07/11 05:47:38;;;;;;;1.20;1.10;;;;;;;;;;5028972;28;20168;-73
2022/07/11 05:50:04;;;;;;;1.88;1.38;;;;;;;;;;5028045;28;20128;-74
2022/07/11 05:52:31;;;;;;;1.30;1.20;;;;;;;;;;5021496;28;20041;-73
2022/07/11 05:54:57;;;;;;;1.00;1.00;;;;;;;;;;5027460;28;20584;-73
2022/07/11 05:57:23;;;;;;;1.33;1.25;;;;;;;;;;5029550;28;20132;-73
2022/07/11 05:59:49;;;;;;;1.42;1.30;;;;;;;;;;5024779;28;20048;-74
2022/07/11 06:02:15;;;;;;;1.48;1.20;;;;;;;;;;5022543;28;20477;-73
2022/07/11 06:04:42;;;;;;;1.85;1.35;;;;;;;;;;5025944;28;20128;-73
2022/07/11 06:07:08;;;;;;;2.50;1.27;;;;;;;;;;5021517;28;20487;-73
2022/07/11 06:09:35;;;;;;;1.38;1.27;;;;;;;;;;5018000;28;20075;-73
2022/07/11 06:12:01;;;;;;;2.05;1.35;;;;;;;;;;5033030;28;20049;-73
2022/07/11 06:14:30;;;;;;;1.65;1.50;;;;;;;;;;5019384;28;20394;-73
2022/07/11 06:16:56;;;;;;;1.42;1.33;;;;;;;;;;5021211;28;20129;-74
2022/07/11 06:19:22;;;;;;;1.02;1.02;;;;;;;;;;5033123;28;20132;-73
2022/07/11 06:21:48;;;;;;;1.30;1.20;;;;;;;;;;5017332;28;20534;-74
2022/07/11 06:24:14;;;;;;;1.17;1.08;;;;;;;;;;5022893;28;20057;-73
2022/07/11 06:26:43;;;;;;;1.15;1.15;;;;;;;;;;5022242;28;20046;-74
2022/07/11 06:29:09;;;;;;;2.40;1.20;;;;;;;;;;5029063;28;20061;-73
2022/07/11 06:31:35;;;;;;;1.30;1.20;;;;;;;;;;5021409;28;20046;-74
2022/07/11 06:34:01;;;;;;;1.00;1.00;;;;;;;;;;5021631;28;20037;-73
2022/07/11 06:36:27;;;;;;;1.25;1.13;;;;;;;;;;5028511;28;20065;-73
2022/07/11 06:38:54;;;;;;;1.15;1.05;;;;;;;;;;5040104;28;20034;-73
2022/07/11 06:41:21;;;;;;;0.90;0.90;;;;;;;;;;5032916;28;20060;-74
2022/07/11 06:43:47;;;;;;;1.10;1.10;;;;;;;;;;5033768;28;20135;-73
2022/07/11 06:46:15;;;;;;;1.65;1.00;;;;;;;;;;5037271;28;20485;-73
2022/07/11 06:48:41;;;;;;;1.05;1.05;;;;;;;;;;5046079;28;20052;-73
2022/07/11 06:51:07;;;;;;;1.85;1.00;;;;;;;;;;5031181;28;20125;-74
2022/07/11 06:53:33;;;;;;;0.90;0.90;;;;;;;;;;5034420;28;20175;-73
2022/07/11 06:55:59;;;;;;;0.80;0.80;;;;;;;;;;5049455;28;20041;-74
2022/07/11 06:58:31;;;;;;;1.75;0.95;;;;;;;;;;5044711;28;20496;-74
2022/07/11 07:01:01;;;;;;;1.05;1.05;;;;;;;;;;5042785;28;20041;-74
2022/07/11 07:03:28;;;;;;;0.90;0.90;;;;;;;;;;5046153;28;20063;-73
2022/07/11 07:05:55;;;;;;;0.90;0.90;;;;;;;;;;5039436;28;20476;-73
2022/07/11 07:08:28;;;;;;;0.80;0.80;;;;;;;;;;5029802;28;20045;-74
2022/07/11 07:10:55;;;;;;;1.20;0.95;;;;;;;;;;5051272;28;20057;-73
2022/07/11 07:13:23;;;;;;;1.00;1.00;;;;;;;;;;5019819;28;20045;-74
2022/07/11 07:15:49;;;;;;;0.90;0.90;;;;;;;;;;5031743;28;20303;-74
2022/07/11 07:18:16;;;;;;;1.27;1.00;;;;;;;;;;5041494;28;20052;-75
2022/07/11 07:20:42;;;;;;;2.15;1.10;;;;;;;;;;5043196;28;20388;-74
2022/07/11 07:23:11;;;;;;;1.10;1.10;;;;;;;;;;5034895;28;20108;-74
2022/07/11 07:25:37;;;;;;;1.58;0.98;;;;;;;;;;5034406;28;20139;-74
2022/07/11 07:28:06;;;;;;;1.00;1.00;;;;;;;;;;5044751;28;20041;-74
2022/07/11 07:30:33;;;;;;;1.20;1.10;;;;;;;;;;5030912;28;20406;-74
2022/07/11 07:33:00;;;;;;;1.10;1.00;;;;;;;;;;5027918;28;20318;-74
2022/07/11 07:35:26;;;;;;;3.08;1.20;;;;;;;;;;5054624;28;20089;-74
2022/07/11 07:37:52;;;;;;;1.30;1.20;;;;;;;;;;5019168;28;20132;-74
2022/07/11 07:40:18;;;;;;;0.82;0.82;;;;;;;;;;5025602;28;20098;-74
2022/07/11 07:42:44;;;;;;;0.90;0.90;;;;;;;;;;5035190;28;20092;-74
2022/07/11 07:45:11;;;;;;;0.98;0.95;;;;;;;;;;5028351;28;20052;-73
2022/07/11 07:47:37;;;;;;;1.20;1.00;;;;;;;;;;5039068;28;20044;-73
2022/07/11 07:50:04;;;;;;;0.90;0.90;;;;;;;;;;5047161;28;20083;-74
2022/07/11 07:52:30;;;;;;;0.90;0.90;;;;;;;;;;5029460;28;20049;-74
2022/07/11 07:54:56;;;;;;;0.75;0.73;;;;;;;;;;5045949;28;20455;-74
2022/07/11 07:57:22;;;;;;;1.00;0.90;;;;;;;;;;5044173;28;20049;-74
2022/07/11 07:59:48;;;;;;;0.93;0.90;;;;;;;;;;5039781;28;20041;-74
2022/07/11 08:02:15;;;;;;;0.80;0.80;;;;;;;;;;5035957;28;20060;-74
2022/07/11 08:04:41;;;;;;;2.33;0.90;;;;;;;;;;5023229;28;20674;-73
2022/07/11 08:07:07;;;;;;;0.95;0.95;;;;;;;;;;5022175;28;20481;-73
2022/07/11 08:09:33;;;;;;;1.33;1.00;;;;;;;;;;5022793;28;20046;-74
2022/07/11 08:12:03;;;;;;;1.00;1.00;;;;;;;;;;5027053;28;20069;-74
2022/07/11 08:14:31;;;;;;;0.80;0.80;;;;;;;;;;5054430;28;20138;-74
2022/07/11 08:16:57;;;;;;;1.42;1.10;;;;;;;;;;5027788;28;20050;-72
2022/07/11 08:19:23;;;;;;;1.00;0.90;;;;;;;;;;5017375;28;20042;-73
2022/07/11 08:21:49;;;;;;;2.35;1.05;;;;;;;;;;5030214;28;20118;-73
2022/07/11 08:24:15;;;;;;;1.10;1.00;;;;;;;;;;5024574;28;20075;-73
2022/07/11 08:26:41;;;;;;;1.08;0.98;;;;;;;;;;5027357;28;20050;-73
2022/07/11 08:29:07;;;;;;;1.20;1.10;;;;;;;;;;5019727;28;20033;-73
2022/07/11 08:31:33;;;;;;;1.00;1.00;;;;;;;;;;5022566;28;20045;-73
2022/07/11 08:33:59;;;;;;;1.10;1.00;;;;;;;;;;5021235;28;20557;-73
2022/07/11 08:36:27;;;;;;;1.60;1.10;;;;;;;;;;5022767;28;20616;-73
2022/07/11 08:38:53;;;;;;;1.35;1.00;;;;;;;;;;5026241;28;20488;-74
2022/07/11 08:41:19;;;;;;;1.17;0.90;;;;;;;;;;5025793;28;20048;-73
2022/07/11 08:43:46;;;;;;;0.98;0.80;;;;;;;;;;5024860;28;20053;-74
2022/07/11 08:46:14;;;;;;;0.90;0.90;;;;;;;;;;5023747;28;20501;-73
2022/07/11 08:48:41;;;;;;;0.80;0.80;;;;;;;;;;5025274;28;20042;-74
2022/07/11 08:51:08;;;;;;;0.93;0.85;;;;;;;;;;5022717;28;20049;-74
2022/07/11 08:53:38;;;;;;;0.95;0.95;;;;;;;;;;5027524;28;20049;-73
2022/07/11 08:56:04;;;;;;;0.93;0.93;;;;;;;;;;5025876;28;20042;-73
2022/07/11 08:58:31;;;;;;;0.80;0.80;;;;;;;;;;5031466;28;20536;-73
2022/07/11 09:00:57;;;;;;;0.90;0.90;;;;;;;;;;5021645;28;20038;-73
2022/07/11 09:03:23;;;;;;;1.20;1.10;;;;;;;;;;5027966;28;20102;-74
2022/07/11 09:05:50;;;;;;;1.15;1.02;;;;;;;;;;5025141;28;20033;-73
2022/07/11 09:08:16;;;;;;;1.20;1.10;;;;;;;;;;5047645;28;20065;-74
2022/07/11 09:10:43;;;;;;;1.15;1.10;;;;;;;;;;5020425;28;20033;-74
2022/07/11 09:13:15;;;;;;;2.85;1.20;;;;;;;;;;5025700;28;20041;-73
2022/07/11 09:15:45;;;;;;;1.50;1.10;;;;;;;;;;5019616;28;20056;-74
2022/07/11 09:18:30;;;;;;;2.63;1.35;;;;;;;;;;5023152;28;20536;-73
2022/07/11 09:26:33;;;;;;;0.95;0.95;;;;;;;;;;5053531;28;20049;-74
2022/07/11 09:29:03;;;;;;;1.20;1.10;;;;;;;;;;5026806;28;20049;-73
2022/07/11 09:31:30;;;;;;;1.25;1.20;;;;;;;;;;5047642;28;20057;-73
2022/07/11 09:34:08;;;;;;;1.42;1.13;;;;;;;;;;5025467;28;20046;-74
2022/07/11 09:36:47;;;;;;;1.00;1.00;;;;;;;;;;5042452;28;20056;-74
2022/07/11 09:39:20;;;;;;;0.85;0.85;;;;;;;;;;5023612;28;20049;-73
2022/07/11 09:41:47;;;;;;;1.00;1.00;;;;;;;;;;5024318;28;20068;-74
2022/07/11 09:44:14;;;;;;;1.63;1.08;;;;;;;;;;5025629;28;20033;-74
2022/07/11 09:46:46;;;;;;;1.23;1.13;;;;;;;;;;5028417;28;20128;-74
2022/07/11 09:49:12;;;;;;;1.08;1.08;;;;;;;;;;5052706;28;20550;-73
2022/07/11 09:51:38;;;;;;;1.00;1.00;;;;;;;;;;5036668;28;20045;-74
2022/07/11 09:54:04;;;;;;;1.23;1.13;;;;;;;;;;5027639;28;20045;-74
2022/07/11 09:56:35;;;;;;;1.08;1.08;;;;;;;;;;5022727;28;20473;-74
2022/07/11 09:59:02;;;;;;;2.05;1.10;;;;;;;;;;5021409;28;20037;-74
2022/07/11 10:01:29;;;;;;;1.00;1.00;;;;;;;;;;5023616;28;20049;-74
2022/07/11 10:03:55;;;;;;;0.95;0.95;;;;;;;;;;5027315;28;20092;-74
2022/07/11 10:06:24;;;;;;;1.17;1.00;;;;;;;;;;5017157;28;20045;-74
2022/07/11 10:08:51;;;;;;;1.05;0.93;;;;;;;;;;5028344;28;20048;-74
2022/07/11 10:11:17;;;;;;;1.00;1.00;;;;;;;;;;5026563;28;20044;-74
2022/07/11 10:13:43;;;;;;;1.10;1.10;;;;;;;;;;5027899;28;20034;-74
2022/07/11 10:16:28;;;;;;;1.10;1.00;;;;;;;;;;5025616;28;20054;-74
2022/07/11 10:19:08;;;;;;;0.98;0.98;;;;;;;;;;5052790;28;20049;-74
2022/07/11 10:21:41;;;;;;;1.00;1.00;;;;;;;;;;5025189;28;20116;-74
2022/07/11 10:24:29;;;;;;;1.30;1.10;;;;;;;;;;5030856;28;20053;-75
2022/07/11 10:27:01;;;;;;;1.30;1.20;;;;;;;;;;5031027;28;20400;-74
2022/07/11 10:29:35;;;;;;;1.00;1.00;;;;;;;;;;5021994;28;20046;-75
2022/07/11 10:32:05;;;;;;;1.13;1.00;;;;;;;;;;5022566;28;20055;-75
2022/07/11 10:34:34;;;;;;;1.00;1.00;;;;;;;;;;5032425;28;20045;-75
2022/07/11 10:37:02;;;;;;;1.13;1.00;;;;;;;;;;5031846;28;20047;-75
2022/07/11 10:39:28;;;;;;;1.38;1.15;;;;;;;;;;5031251;28;20046;-76
2022/07/11 10:41:54;;;;;;;0.80;0.80;;;;;;;;;;5034576;28;20052;-76
2022/07/11 10:44:21;;;;;;;0.90;0.90;;;;;;;;;;5044345;28;20476;-76
2022/07/11 10:46:47;;;;;;;0.98;0.98;;;;;;;;;;5025569;28;20038;-76
2022/07/11 10:49:13;;;;;;;0.90;0.90;;;;;;;;;;5031429;28;20079;-76
2022/07/11 10:51:39;;;;;;;0.90;0.90;;;;;;;;;;5028898;28;20124;-75
2022/07/11 10:54:18;;;;;;;1.10;1.00;;;;;;;;;;5028129;28;20644;-75
2022/07/11 10:56:44;;;;;;;1.00;1.00;;;;;;;;;;5021066;28;20049;-75
2022/07/11 10:59:14;;;;;;;1.27;1.00;;;;;;;;;;5028055;28;20052;-76
2022/07/11 11:02:00;;;;;;;1.20;1.10;;;;;;;;;;5029695;28;20060;-75
2022/07/11 11:04:44;;;;;;;1.15;1.10;;;;;;;;;;5027819;28;20053;-75
2022/07/11 11:07:29;;;;;;;0.88;0.88;;;;;;;;;;5059254;28;20046;-76
2022/07/11 11:09:55;;;;;;;9.85;1.83;;;;;;;;;;5028192;28;20049;-75
2022/07/11 11:12:41;;;;;;;7.93;2.00;;;;;;;;;;5023871;28;20818;-76
2022/07/11 11:15:26;;;;;;;1.27;1.15;;;;;;;;;;5058543;28;20037;-75
2022/07/11 11:17:52;;;;;;;1.00;1.00;;;;;;;;;;5030458;28;20051;-73
2022/07/11 11:20:38;;;;;;;1.83;1.13;;;;;;;;;;5019046;28;20049;-74
2022/07/11 11:23:10;;;;;;;1.00;1.00;;;;;;;;;;5026298;28;20084;-74
2022/07/11 11:25:36;;;;;;;1.00;1.00;;;;;;;;;;5027895;28;20465;-74
2022/07/11 11:28:03;;;;;;;2.50;1.00;;;;;;;;;;5029493;28;20042;-74
2022/07/11 11:30:30;;;;;;;0.95;0.90;;;;;;;;;;5027381;28;20067;-74
2022/07/11 11:32:56;;;;;;;1.15;1.05;;;;;;;;;;5025301;28;20057;-74
2022/07/11 11:35:22;;;;;;;2.05;1.20;;;;;;;;;;5028922;28;20053;-74
2022/07/11 11:37:48;;;;;;;1.83;1.50;;;;;;;;;;5016434;28;20054;-74
2022/07/11 11:40:15;;;;;;;2.35;1.50;;;;;;;;;;5022769;28;20088;-74
2022/07/11 11:42:41;;;;;;;2.17;1.40;;;;;;;;;;5015507;28;20121;-73
2022/07/11 11:45:07;;;;;;;2.25;1.52;;;;;;;;;;5023617;28;20044;-74
2022/07/11 11:47:37;;;;;;;1.88;1.52;;;;;;;;;;5027393;28;20131;-74
2022/07/11 11:50:03;;;;;;;1.83;1.50;;;;;;;;;;5025152;28;20128;-74
2022/07/11 11:52:29;;;;;;;1.35;1.25;;;;;;;;;;5018163;28;20053;-77
2022/07/11 11:54:56;;;;;;;1.52;1.42;;;;;;;;;;5019457;28;20157;-76
2022/07/11 11:57:24;;;;;;;1.50;1.40;;;;;;;;;;5023563;28;20060;-77
2022/07/11 11:59:51;;;;;;;2.13;1.63;;;;;;;;;;5024383;28;20488;-77
2022/07/11 12:02:32;;;;;;;1.30;1.30;;;;;;;;;;5061562;28;20090;-76
2022/07/11 12:04:58;;;;;;;1.50;1.40;;;;;;;;;;5039671;28;20049;-76
2022/07/11 12:07:26;;;;;;;1.95;1.33;;;;;;;;;;5028239;28;20051;-76
2022/07/11 12:09:55;;;;;;;1.45;1.45;;;;;;;;;;5027982;28;20433;-76
2022/07/11 12:15:08;;;;;;;2.00;1.50;;;;;;;;;;5030638;28;20436;-77
2022/07/11 12:17:35;;;;;;;3.97;1.60;;;;;;;;;;5030457;28;20276;-77
2022/07/11 12:20:01;;;;;;;1.60;1.50;;;;;;;;;;5033367;28;20053;-76
2022/07/11 12:22:27;;;;;;;1.40;1.30;;;;;;;;;;5026776;28;20133;-77
2022/07/11 12:24:54;;;;;;;1.20;1.20;;;;;;;;;;5023716;28;20493;-76
2022/07/11 12:27:24;;;;;;;2.25;1.50;;;;;;;;;;5019848;28;20038;-77
2022/07/11 12:29:51;;;;;;;2.03;1.40;;;;;;;;;;5025186;28;20111;-77
2022/07/11 12:32:19;;;;;;;1.67;1.40;;;;;;;;;;5016903;28;20141;-77
2022/07/11 12:34:49;;;;;;;1.30;1.30;;;;;;;;;;5022338;28;20049;-77
2022/07/11 12:37:19;;;;;;;1.45;1.42;;;;;;;;;;5023080;28;20057;-77
2022/07/11 12:39:51;;;;;;;1.80;1.27;;;;;;;;;;5029633;28;20465;-77
2022/07/11 12:42:26;;;;;;;1.55;1.45;;;;;;;;;;5027017;28;20049;-77
2022/07/11 12:45:07;;;;;;;1.58;1.48;;;;;;;;;;5029264;28;20448;-76
2022/07/11 12:47:33;;;;;;;2.05;1.40;;;;;;;;;;5057140;28;20081;-77
2022/07/11 12:50:07;;;;;;;1.60;1.50;;;;;;;;;;5029048;28;20076;-77
2022/07/11 12:52:37;;;;;;;2.15;1.50;;;;;;;;;;5035317;28;20570;-76
2022/07/11 12:55:03;;;;;;;1.55;1.45;;;;;;;;;;5028763;28;20056;-76
2022/07/11 12:57:29;;;;;;;1.55;1.45;;;;;;;;;;5031363;28;20136;-76
2022/07/11 12:59:55;;;;;;;2.40;1.33;;;;;;;;;;5027161;28;20056;-77
2022/07/11 13:02:28;;;;;;;2.08;1.50;;;;;;;;;;5020601;28;20045;-74
2022/07/11 13:04:54;;;;;;;1.80;1.70;;;;;;;;;;5023007;28;20045;-74
2022/07/11 13:10:06;;;;;;;7.65;2.13;;;;;;;;;;5022231;28;20081;-75
2022/07/11 13:12:32;;;;;;;1.83;1.60;;;;;;;;;;5014836;28;20038;-74
2022/07/11 13:15:09;;;;;;;1.60;1.50;;;;;;;;;;5031932;28;20042;-74
2022/07/11 13:17:36;;;;;;;1.60;1.50;;;;;;;;;;5025349;28;20060;-75
2022/07/11 13:20:02;;;;;;;1.67;1.58;;;;;;;;;;5027273;28;20052;-74
2022/07/11 13:22:28;;;;;;;1.42;1.40;;;;;;;;;;5026229;28;20139;-74
2022/07/11 13:24:54;;;;;;;1.50;1.40;;;;;;;;;;5031928;28;20038;-74
2022/07/11 13:27:20;;;;;;;1.17;1.17;;;;;;;;;;5026299;28;20400;-74
2022/07/11 13:29:46;;;;;;;1.67;1.50;;;;;;;;;;5025351;28;20057;-75
2022/07/11 13:32:12;;;;;;;1.45;1.35;;;;;;;;;;5029648;28;20085;-74
2022/07/11 13:34:38;;;;;;;2.00;1.60;;;;;;;;;;5016446;28;20046;-75
2022/07/11 13:37:04;;;;;;;1.77;1.65;;;;;;;;;;5021390;28;20137;-74
2022/07/11 13:39:30;;;;;;;1.77;1.48;;;;;;;;;;5030985;28;20575;-74
2022/07/11 13:41:56;;;;;;;1.80;1.60;;;;;;;;;;5027692;28;20041;-75
2022/07/11 13:44:22;;;;;;;1.67;1.58;;;;;;;;;;5028227;28;20045;-74
2022/07/11 13:46:48;;;;;;;1.92;1.55;;;;;;;;;;5030880;28;20137;-74
2022/07/11 13:49:14;;;;;;;2.45;1.52;;;;;;;;;;5019802;28;20285;-75
2022/07/11 13:51:40;;;;;;;2.55;1.75;;;;;;;;;;5025182;28;20045;-74
2022/07/11 13:54:07;;;;;;;2.25;1.70;;;;;;;;;;5029683;28;20050;-74
2022/07/11 13:56:34;;;;;;;1.70;1.60;;;;;;;;;;5023523;28;20034;-76
2022/07/11 13:59:00;;;;;;;2.63;1.77;;;;;;;;;;5021882;28;20144;-74
2022/07/11 14:01:26;;;;;;;3.25;1.63;;;;;;;;;;5028041;28;20122;-75
2022/07/11 14:03:52;;;;;;;2.72;1.70;;;;;;;;;;5030581;28;20421;-74
2022/07/11 14:06:18;;;;;;;3.63;2.15;;;;;;;;;;5017603;28;20053;-73
2022/07/11 14:08:44;;;;;;;3.47;1.77;;;;;;;;;;5023447;28;20052;-74
2022/07/11 14:11:10;;;;;;;2.42;1.50;;;;;;;;;;5028111;28;20044;-75
2022/07/11 14:13:36;;;;;;;1.85;1.70;;;;;;;;;;5025343;28;20409;-75
2022/07/11 14:16:02;;;;;;;1.70;1.60;;;;;;;;;;5022369;28;20488;-75
2022/07/11 14:18:28;;;;;;;1.60;1.50;;;;;;;;;;5027916;28;20045;-74
2022/07/11 14:20:55;;;;;;;3.83;1.80;;;;;;;;;;5023043;28;20042;-75
2022/07/11 14:23:23;;;;;;;1.70;1.60;;;;;;;;;;5027762;28;20085;-75
2022/07/11 14:25:49;;;;;;;3.17;1.80;;;;;;;;;;5024215;28;20049;-75
2022/07/11 14:28:16;;;;;;;1.60;1.50;;;;;;;;;;5023201;28;20050;-75
2022/07/11 14:30:43;;;;;;;3.10;1.80;;;;;;;;;;5030207;28;20378;-74
2022/07/11 14:33:09;;;;;;;1.63;1.52;;;;;;;;;;5024893;28;20056;-75
2022/07/11 14:35:35;;;;;;;2.42;1.60;;;;;;;;;;5026675;28;20049;-75
2022/07/11 14:38:01;;;;;;;2.22;1.70;;;;;;;;;;5027553;28;20038;-76
2022/07/11 14:40:28;;;;;;;2.35;1.50;;;;;;;;;;5024360;28;20049;-77
2022/07/11 14:42:54;;;;;;;2.13;1.60;;;;;;;;;;5023242;28;20044;-77
2022/07/11 14:45:20;;;;;;;1.48;1.38;;;;;;;;;;5026762;28;20045;-76
2022/07/11 14:47:47;;;;;;;2.45;1.55;;;;;;;;;;5053993;28;20046;-76
2022/07/11 14:50:13;;;;;;;1.80;1.45;;;;;;;;;;5016290;28;20129;-76
2022/07/11 14:52:39;;;;;;;2.30;1.50;;;;;;;;;;5054158;28;20136;-76
2022/07/11 14:55:06;;;;;;;1.50;1.40;;;;;;;;;;5014280;28;20054;-76